Time;durP1;ratioP1;P1;durP2;ratioP2;P2;SDS_P1;SDS_P2;PMS_P1;PMS_P2;Temp;Humidity;BMP_temperature;BMP_pressure;BME280_temperature;BME280_humidity;BME280_pressure;Samples;Min_cycle;Max_cycle;Signal;HPM_P1;HPM_P2
2023/09/28 00:01:00;;;;;;;;;;;22.30;59.40;;;;;;5107575;28;19989;-60
2023/09/28 00:03:27;;;;;;;;;;;22.30;59.40;;;;;;5111743;28;20373;-60
2023/09/28 00:05:54;;;;;;;;;;;22.30;59.40;;;;;;5111985;28;19963;-60
2023/09/28 00:08:21;;;;;;;;;;;22.30;59.40;;;;;;5093282;28;19932;-59
2023/09/28 00:10:47;;;;;;;;;;;22.30;59.40;;;;;;5093446;28;19927;-60
2023/09/28 00:13:14;;;;;;;;;;;22.30;59.30;;;;;;5093343;28;19930;-61
2023/09/28 00:15:39;;;;;;;;;;;22.30;59.30;;;;;;5091561;28;19932;-59
2023/09/28 00:18:08;;;;;;;;;;;22.30;59.30;;;;;;5093533;28;19924;-59
2023/09/28 00:20:35;;;;;;;;;;;22.30;59.30;;;;;;5111381;28;19923;-60
2023/09/28 00:23:02;;;;;;;;;;;22.30;59.30;;;;;;5093789;28;19927;-60
2023/09/28 00:25:28;;;;;;;;;;;22.30;59.30;;;;;;5093087;28;19923;-60
2023/09/28 00:27:56;;;;;;;;;;;22.30;59.30;;;;;;5093688;28;20018;-60
2023/09/28 00:30:22;;;;;;;;;;;22.30;59.30;;;;;;5093821;28;20032;-60
2023/09/28 00:32:49;;;;;;;;;;;22.30;59.30;;;;;;5110964;28;19928;-60
2023/09/28 00:35:14;;;;;;;;;;;22.30;59.30;;;;;;5111285;28;19976;-60
2023/09/28 00:37:43;;;;;;;;;;;22.30;59.30;;;;;;5093022;28;19924;-60
2023/09/28 00:40:17;;;;;;;;;;;22.30;59.30;;;;;;5080013;28;19988;-59
2023/09/28 00:42:44;;;;;;;;;;;22.30;59.30;;;;;;5095163;28;19924;-60
2023/09/28 00:45:10;;;;;;;;;;;22.30;59.20;;;;;;5084858;28;19955;-60
2023/09/28 00:47:38;;;;;;;;;;;22.30;59.20;;;;;;5093738;28;19951;-61
2023/09/28 00:50:08;;;;;;;;;;;22.30;59.20;;;;;;5092355;28;20014;-60
2023/09/28 00:52:35;;;;;;;;;;;22.30;59.20;;;;;;5099490;28;19931;-60
2023/09/28 00:55:03;;;;;;;;;;;22.30;59.30;;;;;;5089449;28;20338;-61
2023/09/28 00:57:33;;;;;;;;;;;22.30;59.10;;;;;;5106842;28;19924;-60
2023/09/28 00:59:59;;;;;;;;;;;22.20;59.00;;;;;;5110557;28;19930;-61
2023/09/28 01:02:26;;;;;;;;;;;22.30;59.20;;;;;;5094094;28;20011;-60
2023/09/28 01:04:52;;;;;;;;;;;22.30;59.10;;;;;;5097537;28;19938;-60
2023/09/28 01:07:25;;;;;;;;;;;22.30;59.20;;;;;;5092326;28;19923;-60
2023/09/28 01:09:51;;;;;;;;;;;22.30;59.20;;;;;;5087327;28;19976;-60
2023/09/28 01:12:20;;;;;;;;;;;22.20;59.10;;;;;;5093438;28;19928;-60
2023/09/28 01:14:47;;;;;;;;;;;22.20;59.10;;;;;;5092482;28;19927;-61
2023/09/28 01:17:16;;;;;;;;;;;22.20;59.00;;;;;;5086591;28;19931;-60
2023/09/28 01:19:42;;;;;;;;;;;22.20;59.10;;;;;;5093604;28;19924;-60
2023/09/28 01:22:12;;;;;;;;;;;22.20;59.10;;;;;;5072979;28;19954;-60
2023/09/28 01:24:38;;;;;;;;;;;22.20;59.10;;;;;;5089905;28;19924;-60
2023/09/28 01:27:06;;;;;;;;;;;22.20;59.10;;;;;;5088880;28;19928;-60
2023/09/28 01:29:31;;;;;;;;;;;22.20;59.10;;;;;;5088753;28;20041;-60
2023/09/28 01:31:58;;;;;;;;;;;22.20;59.10;;;;;;5111298;28;19965;-60
2023/09/28 01:34:24;;;;;;;;;;;22.20;59.10;;;;;;5114645;28;19932;-60
2023/09/28 01:36:51;;;;;;;;;;;22.20;59.10;;;;;;5096306;28;19953;-60
2023/09/28 01:39:18;;;;;;;;;;;22.20;59.10;;;;;;5113392;28;19932;-60
2023/09/28 01:41:45;;;;;;;;;;;22.20;59.10;;;;;;5115155;28;19924;-61
2023/09/28 01:44:11;;;;;;;;;;;22.20;59.10;;;;;;5096898;28;20365;-60
2023/09/28 01:46:37;;;;;;;;;;;22.20;59.10;;;;;;5079634;28;19924;-60
2023/09/28 01:49:03;;;;;;;;;;;22.20;59.10;;;;;;5114370;28;19977;-60
2023/09/28 01:51:30;;;;;;;;;;;22.20;59.10;;;;;;5096195;28;19931;-60
2023/09/28 01:53:56;;;;;;;;;;;22.20;59.10;;;;;;5096573;28;19928;-60
2023/09/28 01:56:24;;;;;;;;;;;22.20;59.10;;;;;;5096088;28;19977;-60
2023/09/28 01:58:49;;;;;;;;;;;22.10;59.00;;;;;;5094988;28;19935;-60
2023/09/28 02:01:28;;;;;;;;;;;22.20;59.00;;;;;;5095282;28;19927;-60
2023/09/28 02:03:55;;;;;;;;;;;22.10;59.00;;;;;;5095855;28;19919;-60
2023/09/28 02:06:21;;;;;;;;;;;22.20;59.00;;;;;;5104791;28;19982;-60
2023/09/28 02:08:47;;;;;;;;;;;22.20;59.00;;;;;;5094822;28;19932;-60
2023/09/28 02:11:13;;;;;;;;;;;22.10;59.00;;;;;;5095952;28;19923;-60
2023/09/28 02:13:41;;;;;;;;;;;22.10;59.00;;;;;;5093712;28;19923;-60
2023/09/28 02:16:08;;;;;;;;;;;22.20;59.00;;;;;;5095869;28;19924;-60
2023/09/28 02:18:35;;;;;;;;;;;22.20;59.00;;;;;;5099708;28;19927;-60
2023/09/28 02:21:03;;;;;;;;;;;22.10;58.90;;;;;;5094397;28;19930;-60
2023/09/28 02:23:29;;;;;;;;;;;22.20;59.00;;;;;;5095839;28;19923;-62
2023/09/28 02:25:57;;;;;;;;;;;22.10;58.90;;;;;;5091723;28;19923;-60
2023/09/28 02:28:24;;;;;;;;;;;22.10;58.90;;;;;;5094297;28;20021;-60
2023/09/28 02:30:51;;;;;;;;;;;22.10;58.90;;;;;;5113795;28;20014;-60
2023/09/28 02:33:18;;;;;;;;;;;22.20;59.00;;;;;;5096110;28;19930;-61
2023/09/28 02:35:43;;;;;;;;;;;22.20;59.00;;;;;;5095001;28;19966;-60
2023/09/28 02:38:10;;;;;;;;;;;22.10;58.90;;;;;;5095504;28;19924;-61
2023/09/28 02:40:36;;;;;;;;;;;22.20;59.00;;;;;;5104545;28;19981;-60
2023/09/28 02:43:03;;;;;;;;;;;22.20;59.50;;;;;;5111040;28;19932;-60
2023/09/28 02:45:29;;;;;;;;;;;22.10;58.90;;;;;;5093831;28;19923;-60
2023/09/28 02:47:57;;;;;;;;;;;22.20;59.00;;;;;;5095229;28;19931;-60
2023/09/28 02:50:23;;;;;;;;;;;22.20;59.00;;;;;;5095933;28;19961;-60
2023/09/28 02:52:52;;;;;;;;;;;22.10;58.90;;;;;;5095600;28;19963;-60
2023/09/28 02:55:17;;;;;;;;;;;22.10;58.90;;;;;;5114026;28;19954;-59
2023/09/28 02:57:44;;;;;;;;;;;22.10;58.90;;;;;;5107383;28;19924;-60
2023/09/28 03:00:17;;;;;;;;;;;22.10;58.90;;;;;;5094059;28;19932;-59
2023/09/28 03:02:44;;;;;;;;;;;22.10;58.90;;;;;;5094816;28;19931;-60
2023/09/28 03:05:11;;;;;;;;;;;22.10;58.90;;;;;;5105175;28;19924;-60
2023/09/28 03:07:39;;;;;;;;;;;22.10;58.90;;;;;;5091310;28;19981;-60
2023/09/28 03:10:06;;;;;;;;;;;22.10;58.90;;;;;;5095894;28;19923;-60
2023/09/28 03:12:32;;;;;;;;;;;22.10;58.90;;;;;;5093095;28;19966;-60
2023/09/28 03:14:58;;;;;;;;;;;22.10;58.90;;;;;;5093822;28;19972;-59
2023/09/28 03:17:25;;;;;;;;;;;22.10;58.90;;;;;;5109010;28;19924;-61
2023/09/28 03:19:51;;;;;;;;;;;22.10;58.80;;;;;;5097679;28;19924;-61
2023/09/28 03:22:20;;;;;;;;;;;22.10;58.80;;;;;;5112933;28;19931;-61
2023/09/28 03:24:46;;;;;;;;;;;22.10;58.80;;;;;;5108681;28;19963;-60
2023/09/28 03:27:13;;;;;;;;;;;22.10;58.80;;;;;;5094649;28;19924;-60
2023/09/28 03:29:41;;;;;;;;;;;22.10;58.80;;;;;;5094942;28;19924;-61
2023/09/28 03:32:07;;;;;;;;;;;22.10;58.80;;;;;;5093490;28;19928;-60
2023/09/28 03:34:33;;;;;;;;;;;22.10;58.80;;;;;;5093464;28;19932;-60
2023/09/28 03:37:00;;;;;;;;;;;22.10;58.80;;;;;;5088739;28;19973;-59
2023/09/28 03:39:28;;;;;;;;;;;22.10;58.80;;;;;;5098353;28;19928;-60
2023/09/28 03:41:55;;;;;;;;;;;22.00;58.70;;;;;;5094598;28;19973;-59
2023/09/28 03:44:22;;;;;;;;;;;22.10;58.80;;;;;;5094463;28;19934;-60
2023/09/28 03:46:49;;;;;;;;;;;22.10;58.80;;;;;;5111522;28;19945;-60
2023/09/28 03:49:16;;;;;;;;;;;22.10;58.80;;;;;;5088385;28;19924;-60
2023/09/28 03:51:42;;;;;;;;;;;22.10;58.80;;;;;;5093581;28;19964;-60
2023/09/28 03:54:09;;;;;;;;;;;22.10;58.80;;;;;;5094694;28;19924;-60
2023/09/28 03:56:37;;;;;;;;;;;22.10;58.70;;;;;;5102515;28;19962;-60
2023/09/28 03:59:04;;;;;;;;;;;22.10;58.80;;;;;;5094458;28;19977;-60
2023/09/28 04:01:31;;;;;;;;;;;22.10;58.80;;;;;;5093618;28;19989;-60
2023/09/28 04:03:58;;;;;;;;;;;22.10;58.70;;;;;;5093769;28;19935;-59
2023/09/28 04:06:24;;;;;;;;;;;22.10;58.70;;;;;;5097715;28;19988;-60
2023/09/28 04:08:51;;;;;;;;;;;22.10;59.30;;;;;;5089714;28;19927;-60
2023/09/28 04:11:18;;;;;;;;;;;22.10;58.80;;;;;;5094568;28;19950;-60
2023/09/28 04:13:46;;;;;;;;;;;22.10;58.80;;;;;;5094022;28;19928;-60
2023/09/28 04:16:13;;;;;;;;;;;22.00;58.70;;;;;;5092420;28;19927;-60
2023/09/28 04:18:39;;;;;;;;;;;22.10;58.80;;;;;;5104035;28;19946;-60
2023/09/28 04:21:06;;;;;;;;;;;22.00;58.70;;;;;;5092388;28;19949;-60
2023/09/28 04:23:33;;;;;;;;;;;22.00;58.70;;;;;;5089230;28;19928;-60
2023/09/28 04:26:00;;;;;;;;;;;22.00;58.70;;;;;;5093052;28;20327;-59
2023/09/28 04:28:27;;;;;;;;;;;22.00;58.70;;;;;;5100001;28;19950;-61
2023/09/28 04:30:55;;;;;;;;;;;22.10;58.80;;;;;;5110350;28;20010;-60
2023/09/28 04:33:22;;;;;;;;;;;22.10;58.80;;;;;;5100919;28;19924;-60
2023/09/28 04:35:50;;;;;;;;;;;22.10;58.80;;;;;;5092383;28;19946;-60
2023/09/28 04:38:17;;;;;;;;;;;22.10;58.80;;;;;;5090657;28;20360;-61
2023/09/28 04:40:43;;;;;;;;;;;22.10;58.90;;;;;;5088142;28;19924;-60
2023/09/28 04:43:10;;;;;;;;;;;22.10;58.80;;;;;;5091565;28;20376;-62
2023/09/28 04:45:37;;;;;;;;;;;22.00;58.80;;;;;;5106332;28;19974;-61
2023/09/28 04:48:06;;;;;;;;;;;22.10;58.90;;;;;;5087834;28;19938;-60
2023/09/28 04:50:32;;;;;;;;;;;22.10;58.80;;;;;;5109354;28;19924;-61
2023/09/28 04:52:59;;;;;;;;;;;22.10;58.90;;;;;;5092747;28;19931;-60
2023/09/28 04:55:26;;;;;;;;;;;22.10;58.90;;;;;;5108128;28;19936;-60
2023/09/28 04:57:53;;;;;;;;;;;22.10;58.90;;;;;;5109783;28;19924;-60
2023/09/28 05:00:20;;;;;;;;;;;22.00;58.80;;;;;;5089519;28;19924;-60
2023/09/28 05:02:47;;;;;;;;;;;22.00;58.70;;;;;;5093556;28;19928;-61
2023/09/28 05:05:15;;;;;;;;;;;22.00;58.80;;;;;;5099272;28;19928;-61
2023/09/28 05:07:42;;;;;;;;;;;22.00;58.80;;;;;;5097800;28;19924;-60
2023/09/28 05:10:09;;;;;;;;;;;22.10;58.90;;;;;;5094120;28;19935;-61
2023/09/28 05:12:36;;;;;;;;;;;22.10;58.90;;;;;;5103880;28;19928;-60
2023/09/28 05:15:03;;;;;;;;;;;22.10;58.80;;;;;;5111482;28;19965;-60
2023/09/28 05:17:31;;;;;;;;;;;22.00;58.70;;;;;;5093457;28;19934;-60
2023/09/28 05:19:58;;;;;;;;;;;22.10;58.80;;;;;;5095578;28;19924;-60
2023/09/28 05:22:26;;;;;;;;;;;22.10;58.80;;;;;;5104619;28;19924;-60
2023/09/28 05:24:53;;;;;;;;;;;22.10;58.80;;;;;;5092981;28;19931;-61
2023/09/28 05:27:20;;;;;;;;;;;22.10;58.80;;;;;;5108729;28;19959;-60
2023/09/28 05:29:47;;;;;;;;;;;22.00;58.70;;;;;;5094092;28;19920;-60
2023/09/28 05:32:14;;;;;;;;;;;22.10;58.80;;;;;;5092378;28;19932;-60
2023/09/28 05:34:40;;;;;;;;;;;22.10;58.80;;;;;;5089218;28;19928;-60
2023/09/28 05:37:07;;;;;;;;;;;22.10;58.70;;;;;;5103944;28;20026;-60
2023/09/28 05:39:35;;;;;;;;;;;22.10;58.80;;;;;;5093711;28;19924;-60
2023/09/28 05:42:03;;;;;;;;;;;22.10;58.70;;;;;;5090491;28;19924;-61
2023/09/28 05:44:31;;;;;;;;;;;22.00;58.60;;;;;;5113308;28;19924;-60
2023/09/28 05:46:59;;;;;;;;;;;22.10;58.70;;;;;;5092979;28;19924;-61
2023/09/28 05:49:26;;;;;;;;;;;22.10;58.70;;;;;;5112571;28;20018;-60
2023/09/28 05:51:53;;;;;;;;;;;22.10;58.70;;;;;;5094766;28;19931;-60
2023/09/28 05:54:19;;;;;;;;;;;22.10;58.80;;;;;;5094155;28;19938;-60
2023/09/28 05:56:48;;;;;;;;;;;22.10;58.80;;;;;;5113123;28;19923;-60
2023/09/28 05:59:15;;;;;;;;;;;22.10;58.80;;;;;;5094841;28;19924;-59
2023/09/28 06:01:42;;;;;;;;;;;22.10;58.80;;;;;;5094176;28;19928;-60
2023/09/28 06:04:11;;;;;;;;;;;22.10;58.80;;;;;;5095676;28;19955;-60
2023/09/28 06:06:37;;;;;;;;;;;22.10;58.80;;;;;;5094821;28;20409;-59
2023/09/28 06:09:05;;;;;;;;;;;22.10;58.80;;;;;;5114035;28;19923;-60
2023/09/28 06:11:32;;;;;;;;;;;22.10;58.80;;;;;;5095194;28;19946;-61
2023/09/28 06:14:01;;;;;;;;;;;22.10;58.80;;;;;;5093975;28;19935;-60
2023/09/28 06:16:28;;;;;;;;;;;22.10;58.80;;;;;;5093459;28;19981;-61
2023/09/28 06:18:54;;;;;;;;;;;22.10;58.80;;;;;;5108542;28;19976;-59
2023/09/28 06:21:22;;;;;;;;;;;22.10;58.90;;;;;;5096106;28;19928;-60
2023/09/28 06:23:49;;;;;;;;;;;22.10;58.90;;;;;;5095595;28;19923;-60
2023/09/28 06:26:16;;;;;;;;;;;22.10;58.80;;;;;;5113825;28;19935;-60
2023/09/28 06:28:43;;;;;;;;;;;22.10;58.80;;;;;;5090667;28;19924;-61
2023/09/28 06:31:11;;;;;;;;;;;22.10;58.70;;;;;;5095796;28;19924;-61
2023/09/28 06:33:38;;;;;;;;;;;22.10;58.80;;;;;;5095681;28;20010;-61
2023/09/28 06:36:05;;;;;;;;;;;22.10;58.70;;;;;;5096292;28;19931;-61
2023/09/28 06:38:33;;;;;;;;;;;22.10;58.70;;;;;;5113833;28;19927;-61
2023/09/28 06:40:59;;;;;;;;;;;22.10;58.70;;;;;;5096253;28;19924;-61
2023/09/28 06:43:26;;;;;;;;;;;22.10;58.70;;;;;;5095646;28;19924;-61
2023/09/28 06:45:53;;;;;;;;;;;22.10;58.70;;;;;;5095723;28;19928;-61
2023/09/28 06:48:22;;;;;;;;;;;22.10;58.70;;;;;;5095677;28;19933;-61
2023/09/28 06:50:49;;;;;;;;;;;22.20;58.80;;;;;;5114482;28;19957;-61
2023/09/28 06:53:16;;;;;;;;;;;22.10;58.70;;;;;;5113021;28;19924;-61
2023/09/28 06:55:44;;;;;;;;;;;22.10;58.70;;;;;;5093503;28;19924;-61
2023/09/28 06:58:13;;;;;;;;;;;22.20;58.80;;;;;;5094501;28;19931;-61
2023/09/28 07:00:40;;;;;;;;;;;22.20;58.90;;;;;;5112556;28;19931;-61
2023/09/28 07:03:07;;;;;;;;;;;22.20;58.80;;;;;;5093664;28;19923;-61
2023/09/28 07:05:35;;;;;;;;;;;22.20;58.80;;;;;;5092807;28;19927;-61
2023/09/28 07:08:05;;;;;;;;;;;22.20;58.90;;;;;;5093237;28;19932;-61
2023/09/28 07:10:32;;;;;;;;;;;22.20;58.80;;;;;;5090303;28;19924;-60
2023/09/28 07:13:00;;;;;;;;;;;22.20;58.80;;;;;;5113493;28;19924;-60
2023/09/28 07:15:28;;;;;;;;;;;22.20;58.90;;;;;;5095039;28;19930;-60
2023/09/28 07:17:55;;;;;;;;;;;22.30;58.90;;;;;;5090268;28;19967;-60
2023/09/28 07:20:22;;;;;;;;;;;22.30;58.90;;;;;;5094775;28;19928;-61
2023/09/28 07:22:50;;;;;;;;;;;22.30;58.90;;;;;;5084088;28;19932;-61
2023/09/28 07:25:16;;;;;;;;;;;22.30;58.90;;;;;;5100614;28;20313;-60
2023/09/28 07:27:43;;;;;;;;;;;22.30;58.90;;;;;;5112052;28;19924;-61
2023/09/28 07:30:11;;;;;;;;;;;22.30;58.90;;;;;;5108282;28;19924;-61
2023/09/28 07:32:38;;;;;;;;;;;22.30;58.90;;;;;;5090441;28;19924;-61
2023/09/28 07:35:05;;;;;;;;;;;22.30;58.90;;;;;;5100475;28;19931;-61
2023/09/28 07:37:32;;;;;;;;;;;22.30;58.80;;;;;;5089350;28;19935;-60
2023/09/28 07:40:01;;;;;;;;;;;22.30;58.80;;;;;;5112000;28;19920;-61
2023/09/28 07:42:28;;;;;;;;;;;22.30;58.80;;;;;;5105260;28;19924;-61
2023/09/28 07:44:55;;;;;;;;;;;22.30;58.70;;;;;;5094365;28;19967;-61
2023/09/28 07:47:23;;;;;;;;;;;22.30;58.70;;;;;;5094031;28;19927;-62
2023/09/28 07:49:50;;;;;;;;;;;22.30;58.70;;;;;;5105161;28;19947;-60
2023/09/28 07:52:16;;;;;;;;;;;22.30;58.70;;;;;;5094045;28;19931;-62
2023/09/28 07:54:43;;;;;;;;;;;22.30;58.70;;;;;;5092493;28;19924;-61
2023/09/28 07:57:12;;;;;;;;;;;22.40;58.70;;;;;;5088400;28;20026;-62
2023/09/28 07:59:40;;;;;;;;;;;22.30;58.70;;;;;;5095090;28;19947;-62
2023/09/28 08:02:09;;;;;;;;;;;22.30;58.60;;;;;;5095132;28;20018;-61
2023/09/28 08:04:36;;;;;;;;;;;22.40;58.70;;;;;;5101751;28;19924;-62
2023/09/28 08:07:03;;;;;;;;;;;22.30;58.60;;;;;;5089785;28;19923;-61
2023/09/28 08:09:30;;;;;;;;;;;22.40;58.70;;;;;;5088842;28;19931;-60
2023/09/28 08:11:56;;;;;;;;;;;22.40;58.70;;;;;;5094107;28;19991;-61
2023/09/28 08:14:25;;;;;;;;;;;22.40;59.30;;;;;;5109902;28;19953;-60
2023/09/28 08:16:51;;;;;;;;;;;22.40;58.70;;;;;;5111672;28;19932;-61
2023/09/28 08:19:19;;;;;;;;;;;22.40;58.80;;;;;;5094073;28;19932;-61
2023/09/28 08:21:46;;;;;;;;;;;22.40;58.70;;;;;;5093684;28;19924;-61
2023/09/28 08:24:13;;;;;;;;;;;22.40;58.70;;;;;;5093436;28;19973;-60
2023/09/28 08:26:40;;;;;;;;;;;22.40;58.70;;;;;;5100658;28;19932;-61
2023/09/28 08:29:07;;;;;;;;;;;22.40;58.70;;;;;;5089325;28;19950;-61
2023/09/28 08:31:35;;;;;;;;;;;22.40;58.70;;;;;;5088823;28;19923;-61
2023/09/28 08:34:02;;;;;;;;;;;22.40;58.70;;;;;;5093506;28;19988;-61
2023/09/28 08:36:29;;;;;;;;;;;22.40;58.70;;;;;;5093848;28;19964;-61
2023/09/28 08:38:56;;;;;;;;;;;22.40;58.70;;;;;;5111908;28;19923;-61
2023/09/28 08:41:25;;;;;;;;;;;22.50;58.70;;;;;;5094093;28;19928;-61
2023/09/28 08:43:53;;;;;;;;;;;22.50;58.80;;;;;;5096521;28;19981;-62
2023/09/28 08:46:21;;;;;;;;;;;22.50;58.80;;;;;;5094103;28;19931;-61
2023/09/28 08:48:49;;;;;;;;;;;22.50;58.80;;;;;;5095300;28;19924;-61
2023/09/28 08:51:16;;;;;;;;;;;22.50;58.90;;;;;;5093431;28;19928;-61
2023/09/28 08:53:43;;;;;;;;;;;22.50;58.90;;;;;;5114638;28;20132;-61
2023/09/28 08:56:10;;;;;;;;;;;22.50;58.90;;;;;;5114664;28;19930;-61
2023/09/28 08:58:37;;;;;;;;;;;22.50;58.90;;;;;;5096813;28;19977;-61
2023/09/28 09:01:04;;;;;;;;;;;22.50;58.90;;;;;;5097496;28;20331;-60
2023/09/28 09:03:31;;;;;;;;;;;22.60;59.00;;;;;;5115463;28;19939;-60
2023/09/28 09:05:59;;;;;;;;;;;22.60;59.00;;;;;;5094861;28;19924;-60
2023/09/28 09:08:27;;;;;;;;;;;22.60;59.00;;;;;;5096146;28;19924;-61
2023/09/28 09:10:54;;;;;;;;;;;22.60;59.00;;;;;;5102805;28;19935;-60
2023/09/28 09:13:21;;;;;;;;;;;22.60;59.00;;;;;;5113423;28;19923;-60
2023/09/28 09:15:49;;;;;;;;;;;22.60;59.00;;;;;;5115257;28;19924;-60
2023/09/28 09:18:17;;;;;;;;;;;22.60;59.00;;;;;;5096841;28;19923;-61
2023/09/28 09:20:44;;;;;;;;;;;22.60;59.00;;;;;;5114861;28;19924;-60
2023/09/28 09:23:15;;;;;;;;;;;22.60;59.00;;;;;;5093923;28;19954;-61
2023/09/28 09:25:42;;;;;;;;;;;22.60;59.00;;;;;;5112163;28;19932;-61
2023/09/28 09:28:09;;;;;;;;;;;22.60;59.00;;;;;;5096350;28;19924;-61
2023/09/28 09:30:36;;;;;;;;;;;22.60;59.00;;;;;;5094929;28;19924;-60
2023/09/28 09:33:04;;;;;;;;;;;22.60;59.10;;;;;;5096169;28;19924;-60
2023/09/28 09:35:31;;;;;;;;;;;22.60;59.10;;;;;;5096797;28;19981;-60
2023/09/28 09:37:58;;;;;;;;;;;22.60;59.10;;;;;;5096727;28;20315;-60
2023/09/28 09:40:26;;;;;;;;;;;22.60;59.10;;;;;;5094946;28;19923;-59
2023/09/28 09:42:53;;;;;;;;;;;22.70;59.20;;;;;;5095836;28;19931;-61
2023/09/28 09:45:20;;;;;;;;;;;22.70;59.20;;;;;;5099931;28;19931;-61
2023/09/28 09:47:47;;;;;;;;;;;22.70;59.20;;;;;;5094779;28;19927;-61
2023/09/28 09:50:16;;;;;;;;;;;22.70;59.30;;;;;;5093010;28;19924;-61
2023/09/28 09:52:43;;;;;;;;;;;22.70;59.30;;;;;;5095431;28;19936;-60
2023/09/28 09:55:10;;;;;;;;;;;22.70;59.20;;;;;;5116629;28;19923;-60
2023/09/28 09:57:38;;;;;;;;;;;22.70;59.20;;;;;;5087337;28;19931;-61
2023/09/28 10:00:06;;;;;;;;;;;22.70;59.30;;;;;;5093769;28;19939;-61
2023/09/28 10:02:33;;;;;;;;;;;22.70;59.30;;;;;;5112572;28;19965;-61
2023/09/28 10:05:01;;;;;;;;;;;22.70;59.30;;;;;;5113297;28;19928;-62
2023/09/28 10:07:32;;;;;;;;;;;22.70;59.30;;;;;;5095500;28;19924;-60
2023/09/28 10:09:59;;;;;;;;;;;22.70;59.30;;;;;;5112755;28;19930;-62
2023/09/28 10:12:29;;;;;;;;;;;22.70;59.30;;;;;;5092325;28;19939;-61
2023/09/28 10:14:58;;;;;;;;;;;22.70;59.40;;;;;;5095072;28;19991;-59
2023/09/28 10:17:25;;;;;;;;;;;22.80;59.40;;;;;;5096633;28;19931;-61
2023/09/28 10:19:52;;;;;;;;;;;22.80;59.60;;;;;;5096080;28;19935;-61
2023/09/28 10:22:19;;;;;;;;;;;22.80;59.70;;;;;;5094398;28;20018;-61
2023/09/28 10:24:46;;;;;;;;;;;22.80;59.80;;;;;;5094177;28;19932;-61
2023/09/28 10:27:13;;;;;;;;;;;22.80;59.70;;;;;;5077583;28;19931;-62
2023/09/28 10:29:41;;;;;;;;;;;22.80;59.80;;;;;;5091153;28;19928;-62
2023/09/28 10:32:15;;;;;;;;;;;22.80;59.80;;;;;;5094545;28;19932;-61
2023/09/28 10:34:45;;;;;;;;;;;22.90;59.90;;;;;;5099744;28;19931;-61
2023/09/28 10:37:23;;;;;;;;;;;22.80;59.70;;;;;;5094633;28;19930;-62
2023/09/28 10:39:51;;;;;;;;;;;22.90;59.80;;;;;;5091589;28;19936;-60
2023/09/28 10:42:18;;;;;;;;;;;22.90;59.80;;;;;;5093469;28;19973;-61
2023/09/28 10:44:48;;;;;;;;;;;22.90;59.90;;;;;;5091659;28;19951;-59
2023/09/28 10:47:16;;;;;;;;;;;22.90;59.90;;;;;;5095420;28;19930;-61
2023/09/28 10:49:43;;;;;;;;;;;22.90;59.90;;;;;;5092219;28;19939;-62
2023/09/28 10:52:10;;;;;;;;;;;22.90;60.00;;;;;;5110486;28;19923;-60
2023/09/28 10:54:39;;;;;;;;;;;22.90;60.20;;;;;;5090978;28;19969;-60
2023/09/28 10:57:07;;;;;;;;;;;22.90;60.00;;;;;;5094579;28;19978;-61
2023/09/28 10:59:36;;;;;;;;;;;22.90;59.90;;;;;;5096826;28;19928;-61
2023/09/28 11:02:03;;;;;;;;;;;22.90;59.80;;;;;;5098810;28;20010;-59
2023/09/28 11:04:32;;;;;;;;;;;22.90;59.70;;;;;;5071268;28;19924;-63
2023/09/28 11:07:00;;;;;;;;;;;23.00;59.70;;;;;;5086737;28;20022;-62
2023/09/28 11:09:32;;;;;;;;;;;23.00;59.80;;;;;;5091279;28;19946;-62
2023/09/28 11:12:18;;;;;;;;;;;23.00;59.70;;;;;;5113420;28;19934;-60
2023/09/28 11:14:46;;;;;;;;;;;23.00;59.50;;;;;;5090194;28;19995;-60
2023/09/28 11:17:14;;;;;;;;;;;23.00;59.50;;;;;;5096734;28;20374;-63
2023/09/28 11:19:43;;;;;;;;;;;23.00;59.50;;;;;;5088354;28;19923;-63
2023/09/28 11:22:11;;;;;;;;;;;23.00;59.40;;;;;;5099777;28;19963;-61
2023/09/28 11:27:13;;;;;;;;;;;23.00;59.50;;;;;;5112240;22;19934;-60
2023/09/28 11:29:40;;;;;;;;;;;23.00;59.50;;;;;;4990962;28;19926;-62
2023/09/28 11:32:07;;;;;;;;;;;23.00;59.50;;;;;;4993618;28;19932;-62
2023/09/28 11:34:38;;;;;;;;;;;23.00;59.40;;;;;;4992017;28;19981;-63
2023/09/28 11:37:09;;;;;;;;;;;23.10;59.50;;;;;;4993109;28;19925;-60
2023/09/28 11:39:37;;;;;;;;;;;23.10;59.40;;;;;;4991140;28;19930;-61
2023/09/28 11:42:04;;;;;;;;;;;23.10;59.30;;;;;;4994345;28;19933;-61
2023/09/28 11:44:31;;;;;;;;;;;23.10;59.30;;;;;;4995809;28;19934;-61
2023/09/28 11:46:57;;;;;;;;;;;23.10;59.20;;;;;;4990444;28;19933;-61
2023/09/28 11:49:24;;;;;;;;;;;23.10;59.10;;;;;;4992624;28;19926;-63
2023/09/28 11:51:52;;;;;;;;;;;23.10;59.20;;;;;;4994019;28;19930;-60
2023/09/28 11:54:21;;;;;;;;;;;23.10;59.20;;;;;;4993623;28;20050;-63
2023/09/28 11:56:48;;;;;;;;;;;23.10;59.20;;;;;;4995105;28;19953;-60
2023/09/28 11:59:15;;;;;;;;;;;23.10;59.30;;;;;;4993627;28;19926;-62
2023/09/28 12:01:42;;;;;;;;;;;23.10;59.30;;;;;;5008822;28;19938;-62
2023/09/28 12:04:09;;;;;;;;;;;23.10;59.30;;;;;;4981247;28;19925;-62
2023/09/28 12:06:37;;;;;;;;;;;23.10;59.30;;;;;;4984734;28;20008;-60
2023/09/28 12:09:05;;;;;;;;;;;23.10;59.40;;;;;;4989794;28;19992;-61
2023/09/28 12:11:34;;;;;;;;;;;23.10;59.40;;;;;;4990742;28;19984;-60
2023/09/28 12:14:01;;;;;;;;;;;23.10;59.40;;;;;;4991369;28;19926;-60
2023/09/28 12:16:27;;;;;;;;;;;23.10;59.40;;;;;;4990839;28;19930;-60
2023/09/28 12:18:54;;;;;;;;;;;23.10;59.40;;;;;;4991510;28;19984;-60
2023/09/28 12:21:21;;;;;;;;;;;23.10;59.40;;;;;;4990088;28;19981;-60
2023/09/28 12:23:48;;;;;;;;;;;23.10;59.40;;;;;;4984943;28;19933;-59
2023/09/28 12:26:15;;;;;;;;;;;23.10;59.40;;;;;;4989609;28;19980;-60
2023/09/28 12:28:44;;;;;;;;;;;23.10;59.50;;;;;;4988474;28;19926;-60
2023/09/28 12:31:12;;;;;;;;;;;23.10;59.40;;;;;;4990181;28;20383;-60
2023/09/28 12:33:39;;;;;;;;;;;23.20;59.50;;;;;;4990664;28;19960;-61
2023/09/28 12:36:06;;;;;;;;;;;23.20;59.50;;;;;;4990197;28;19988;-59
2023/09/28 12:38:33;;;;;;;;;;;23.20;59.50;;;;;;4989931;28;19930;-60
2023/09/28 12:41:00;;;;;;;;;;;23.20;59.50;;;;;;4991689;28;19960;-60
2023/09/28 12:43:27;;;;;;;;;;;23.20;59.50;;;;;;4990007;28;20431;-60
2023/09/28 12:45:55;;;;;;;;;;;23.20;59.50;;;;;;4991139;28;19996;-61
2023/09/28 12:48:22;;;;;;;;;;;23.20;59.40;;;;;;4989643;28;19930;-60
2023/09/28 12:50:49;;;;;;;;;;;23.20;59.40;;;;;;4989803;28;19926;-61
2023/09/28 12:53:16;;;;;;;;;;;23.20;59.40;;;;;;4987406;28;19921;-59
2023/09/28 12:55:42;;;;;;;;;;;23.20;59.40;;;;;;4991168;28;20013;-59
2023/09/28 12:58:09;;;;;;;;;;;23.20;59.40;;;;;;4989632;28;19929;-60
2023/09/28 13:00:37;;;;;;;;;;;23.20;59.40;;;;;;4990514;28;19925;-59
2023/09/28 13:03:07;;;;;;;;;;;23.20;59.40;;;;;;4986748;28;19933;-62
2023/09/28 13:05:35;;;;;;;;;;;23.20;59.40;;;;;;5002699;28;19926;-63
2023/09/28 13:08:01;;;;;;;;;;;23.20;59.40;;;;;;4989151;28;19988;-60
2023/09/28 13:10:28;;;;;;;;;;;23.20;59.40;;;;;;4990773;28;19925;-59
2023/09/28 13:12:55;;;;;;;;;;;23.20;59.40;;;;;;4989761;28;19926;-60
2023/09/28 13:15:23;;;;;;;;;;;23.20;59.40;;;;;;4990464;28;19929;-58
2023/09/28 13:17:50;;;;;;;;;;;23.20;59.40;;;;;;4991745;28;19933;-59
2023/09/28 13:20:26;;;;;;;;;;;23.20;59.40;;;;;;4990840;28;19933;-60
2023/09/28 13:22:54;;;;;;;;;;;23.20;59.40;;;;;;4986258;28;19932;-60
2023/09/28 13:25:21;;;;;;;;;;;23.20;59.40;;;;;;4991084;28;19969;-60
2023/09/28 13:27:48;;;;;;;;;;;23.20;59.40;;;;;;4990519;28;19981;-60
2023/09/28 13:30:15;;;;;;;;;;;23.20;59.40;;;;;;5009664;28;19973;-61
2023/09/28 13:32:41;;;;;;;;;;;23.20;59.40;;;;;;4992931;28;19926;-60
2023/09/28 13:35:10;;;;;;;;;;;23.20;59.40;;;;;;4994741;28;19949;-61
2023/09/28 13:37:39;;;;;;;;;;;23.20;59.40;;;;;;4988465;28;19932;-60
2023/09/28 13:40:14;;;;;;;;;;;23.20;59.50;;;;;;4992303;28;19926;-59
2023/09/28 13:42:40;;;;;;;;;;;23.20;59.40;;;;;;4993615;28;19995;-62
2023/09/28 13:45:09;;;;;;;;;;;23.20;59.50;;;;;;4994282;28;20012;-61
2023/09/28 13:47:35;;;;;;;;;;;23.20;59.50;;;;;;4993062;28;19949;-61
2023/09/28 13:50:06;;;;;;;;;;;23.20;59.50;;;;;;4993771;28;19980;-61
2023/09/28 13:52:33;;;;;;;;;;;23.20;59.50;;;;;;4993084;28;19980;-61
2023/09/28 13:55:01;;;;;;;;;;;23.20;59.50;;;;;;4992734;28;19973;-60
2023/09/28 13:57:27;;;;;;;;;;;23.30;59.60;;;;;;4992579;28;19933;-62
2023/09/28 13:59:56;;;;;;;;;;;23.20;59.50;;;;;;4994232;28;19926;-62
2023/09/28 14:02:26;;;;;;;;;;;23.20;59.50;;;;;;4993233;28;19929;-61
2023/09/28 14:04:53;;;;;;;;;;;23.30;59.60;;;;;;4994647;28;19937;-60
2023/09/28 14:07:20;;;;;;;;;;;23.30;59.60;;;;;;4993650;28;19930;-61
2023/09/28 14:09:47;;;;;;;;;;;23.30;59.60;;;;;;4993165;28;19925;-60
2023/09/28 14:12:15;;;;;;;;;;;23.30;59.60;;;;;;4993940;28;19930;-61
2023/09/28 14:14:43;;;;;;;;;;;23.30;59.90;;;;;;4991759;28;19972;-61
2023/09/28 14:17:10;;;;;;;;;;;23.30;59.60;;;;;;4992285;28;19983;-62
2023/09/28 14:19:37;;;;;;;;;;;23.30;59.60;;;;;;4992887;28;19926;-62